Time;durP1;ratioP1;P1;durP2;ratioP2;P2;SDS_P1;SDS_P2;PMS_P1;PMS_P2;Temp;Humidity;BMP_temperature;BMP_pressure;BME280_temperature;BME280_humidity;BME280_pressure;Samples;Min_cycle;Max_cycle;Signal;HPM_P1;HPM_P2
2023/01/07 00:01:29;;;;;;;;;;;;;;;;;;5111665;28;844;-67
2023/01/07 00:03:55;;;;;;;;;;;;;;;;;;5112757;28;860;-68
2023/01/07 00:06:27;;;;;;;;;;;;;;;;;;5093745;28;1266;-67
2023/01/07 00:08:54;;;;;;;;;;;;;;;;;;5112264;28;919;-67
2023/01/07 00:11:21;;;;;;;;;;;;;;;;;;5094224;28;967;-68
2023/01/07 00:13:50;;;;;;;;;;;;;;;;;;5112539;28;1950;-66
2023/01/07 00:16:17;;;;;;;;;;;;;;;;;;5112540;28;809;-67
2023/01/07 00:18:43;;;;;;;;;;;;;;;;;;5105716;27;1267;-67
2023/01/07 00:21:10;;;;;;;;;;;;;;;;;;5116759;27;1242;-66
2023/01/07 00:23:37;;;;;;;;;;;;;;;;;;5116476;27;1206;-67
2023/01/07 00:26:13;;;;;;;;;;;;;;;;;;5118253;27;922;-67
2023/01/07 00:28:39;;;;;;;;;;;;;;;;;;5136406;27;879;-68
2023/01/07 00:31:34;;;;;;;;;;;;;;;;;;5136458;27;965;-67
2023/01/07 00:36:25;;;;;;;;;;;;;;;;;;5135729;27;698;-67
2023/01/07 00:38:58;;;;;;;;;;;;;;;;;;5118200;27;1206;-68
2023/01/07 00:41:24;;;;;;;;;;;;;;;;;;5116288;27;1440;-67
2023/01/07 00:43:49;;;;;;;;;;;;;;;;;;5119327;27;1128;-67
2023/01/07 00:46:15;;;;;;;;;;;;;;;;;;5113662;28;1159;-67
2023/01/07 00:48:40;;;;;;;;;;;;;;;;;;5113361;28;1218;-67
2023/01/07 00:51:07;;;;;;;;;;;;;;;;;;5091079;28;1270;-67
2023/01/07 00:53:33;;;;;;;;;;;;;;;;;;5096882;28;1971;-66
2023/01/07 00:55:58;;;;;;;;;;;;;;;;;;5079867;28;1379;-66
2023/01/07 00:58:24;;;;;;;;;;;;;;;;;;5080271;28;1270;-66
2023/01/07 01:00:53;;;;;;;;;;;;;;;;;;5115279;28;852;-67
2023/01/07 01:03:18;;;;;;;;;;;;;;;;;;5115225;28;884;-66
2023/01/07 01:05:44;;;;;;;;;;;;;;;;;;5096987;28;887;-66
2023/01/07 01:08:09;;;;;;;;;;;;;;;;;;5097255;28;1302;-67
2023/01/07 01:10:34;;;;;;;;;;;;;;;;;;5080163;28;1242;-66
2023/01/07 01:13:00;;;;;;;;;;;;;;;;;;5079732;28;1967;-67
2023/01/07 01:15:26;;;;;;;;;;;;;;;;;;5096678;28;1230;-65
2023/01/07 01:17:51;;;;;;;;;;;;;;;;;;5079655;28;1325;-66
2023/01/07 01:20:17;;;;;;;;;;;;;;;;;;5115194;28;908;-66
2023/01/07 01:22:43;;;;;;;;;;;;;;;;;;5079616;28;1238;-67
2023/01/07 01:25:09;;;;;;;;;;;;;;;;;;5116236;28;912;-66
2023/01/07 01:27:34;;;;;;;;;;;;;;;;;;5115747;28;954;-66
2023/01/07 01:30:01;;;;;;;;;;;;;;;;;;5096899;28;1457;-66
2023/01/07 01:32:26;;;;;;;;;;;;;;;;;;5096476;28;1964;-67
2023/01/07 01:34:51;;;;;;;;;;;;;;;;;;5095762;28;1378;-67
2023/01/07 01:37:17;;;;;;;;;;;;;;;;;;5096498;28;892;-67
2023/01/07 01:39:42;;;;;;;;;;;;;;;;;;5114422;28;861;-67
2023/01/07 01:42:21;;;;;;;;;;;;;;;;;;5079193;28;1356;-69
2023/01/07 01:44:49;;;;;;;;;;;;;;;;;;5095849;28;1270;-66
2023/01/07 01:47:32;;;;;;;;;;;;;;;;;;5114267;28;995;-67
2023/01/07 01:50:01;;;;;;;;;;;;;;;;;;5096078;28;1382;-67
2023/01/07 01:52:33;;;;;;;;;;;;;;;;;;5095900;28;1905;-67
2023/01/07 01:54:59;;;;;;;;;;;;;;;;;;5095819;28;1199;-67
2023/01/07 01:57:27;;;;;;;;;;;;;;;;;;5114068;28;837;-67
2023/01/07 01:59:52;;;;;;;;;;;;;;;;;;5095310;28;1297;-68
2023/01/07 02:02:47;;;;;;;;;;;;;;;;;;5078414;28;1417;-67
2023/01/07 02:05:13;;;;;;;;;;;;;;;;;;5096123;28;1252;-67
2023/01/07 02:07:38;;;;;;;;;;;;;;;;;;5078863;28;1091;-72
2023/01/07 02:10:15;;;;;;;;;;;;;;;;;;5095211;28;1179;-73
2023/01/07 02:12:59;;;;;;;;;;;;;;;;;;5095198;28;1913;-72
2023/01/07 02:15:44;;;;;;;;;;;;;;;;;;5095659;28;1199;-72
2023/01/07 02:18:33;;;;;;;;;;;;;;;;;;5114098;28;832;-71
2023/01/07 02:21:16;;;;;;;;;;;;;;;;;;5074613;28;1137;-73
2023/01/07 02:23:57;;;;;;;;;;;;;;;;;;5094889;28;1553;-67
2023/01/07 02:26:34;;;;;;;;;;;;;;;;;;5095222;28;1163;-66
2023/01/07 02:29:12;;;;;;;;;;;;;;;;;;5113448;28;844;-67
2023/01/07 02:31:46;;;;;;;;;;;;;;;;;;5113280;28;839;-67
2023/01/07 02:34:17;;;;;;;;;;;;;;;;;;5094760;28;1972;-67
2023/01/07 02:36:47;;;;;;;;;;;;;;;;;;5094522;28;1194;-67
2023/01/07 02:39:15;;;;;;;;;;;;;;;;;;5113301;28;829;-67
2023/01/07 02:41:55;;;;;;;;;;;;;;;;;;5113540;28;840;-72
2023/01/07 02:44:27;;;;;;;;;;;;;;;;;;5113061;28;951;-73
2023/01/07 02:47:02;;;;;;;;;;;;;;;;;;5113029;28;812;-72
2023/01/07 02:49:27;;;;;;;;;;;;;;;;;;5094962;28;1194;-73
2023/01/07 02:51:52;;;;;;;;;;;;;;;;;;5112719;28;790;-72
2023/01/07 02:54:22;;;;;;;;;;;;;;;;;;5113019;28;1979;-72
2023/01/07 02:57:00;;;;;;;;;;;;;;;;;;5094429;28;1210;-73
2023/01/07 02:59:44;;;;;;;;;;;;;;;;;;5112761;28;892;-72
2023/01/07 03:02:31;;;;;;;;;;;;;;;;;;5094722;28;1199;-72
2023/01/07 03:04:56;;;;;;;;;;;;;;;;;;5094236;28;1377;-68
2023/01/07 03:07:49;;;;;;;;;;;;;;;;;;5094557;28;1263;-66
2023/01/07 03:10:29;;;;;;;;;;;;;;;;;;5113515;28;681;-72
2023/01/07 03:13:03;;;;;;;;;;;;;;;;;;5094557;28;1898;-73
2023/01/07 03:15:32;;;;;;;;;;;;;;;;;;5112910;28;978;-72
2023/01/07 03:18:03;;;;;;;;;;;;;;;;;;5094080;28;1125;-73
2023/01/07 03:20:30;;;;;;;;;;;;;;;;;;5112586;28;896;-73
2023/01/07 03:22:57;;;;;;;;;;;;;;;;;;5093766;28;1235;-72
2023/01/07 03:25:24;;;;;;;;;;;;;;;;;;5112900;28;971;-72
2023/01/07 03:27:49;;;;;;;;;;;;;;;;;;5093609;28;1368;-72
2023/01/07 03:30:16;;;;;;;;;;;;;;;;;;5094052;28;817;-72
2023/01/07 03:32:45;;;;;;;;;;;;;;;;;;5093582;28;1890;-74
2023/01/07 03:35:11;;;;;;;;;;;;;;;;;;5093895;28;1190;-72
2023/01/07 03:37:40;;;;;;;;;;;;;;;;;;5077030;28;1287;-72
2023/01/07 03:40:08;;;;;;;;;;;;;;;;;;5112233;28;848;-72
2023/01/07 03:42:40;;;;;;;;;;;;;;;;;;5093846;28;1219;-73
2023/01/07 03:45:25;;;;;;;;;;;;;;;;;;5093646;28;1211;-72
2023/01/07 03:47:52;;;;;;;;;;;;;;;;;;5110800;28;1023;-73
2023/01/07 03:50:18;;;;;;;;;;;;;;;;;;5093756;28;825;-73
2023/01/07 03:52:43;;;;;;;;;;;;;;;;;;5111369;28;1947;-73
2023/01/07 03:55:09;;;;;;;;;;;;;;;;;;5111019;28;849;-73
2023/01/07 03:57:34;;;;;;;;;;;;;;;;;;5111872;28;852;-73
2023/01/07 04:00:00;;;;;;;;;;;;;;;;;;5092619;28;1301;-72
2023/01/07 04:02:25;;;;;;;;;;;;;;;;;;5092936;28;1430;-73
2023/01/07 04:04:51;;;;;;;;;;;;;;;;;;5110797;28;1081;-73
2023/01/07 04:07:16;;;;;;;;;;;;;;;;;;5093579;28;1422;-72
2023/01/07 04:09:42;;;;;;;;;;;;;;;;;;5093082;28;1164;-66
2023/01/07 04:12:07;;;;;;;;;;;;;;;;;;5076519;28;1973;-66
2023/01/07 04:14:33;;;;;;;;;;;;;;;;;;5111228;28;971;-67
2023/01/07 04:16:58;;;;;;;;;;;;;;;;;;5092741;28;911;-67
2023/01/07 04:19:23;;;;;;;;;;;;;;;;;;5111027;28;932;-66
2023/01/07 04:21:49;;;;;;;;;;;;;;;;;;5092844;28;852;-66
2023/01/07 04:24:14;;;;;;;;;;;;;;;;;;5093086;28;979;-67
2023/01/07 04:26:39;;;;;;;;;;;;;;;;;;5076938;28;1421;-67
2023/01/07 04:29:05;;;;;;;;;;;;;;;;;;5111526;28;871;-67
2023/01/07 04:31:30;;;;;;;;;;;;;;;;;;5111634;28;840;-68
2023/01/07 04:33:56;;;;;;;;;;;;;;;;;;5092398;28;1963;-68
2023/01/07 04:36:21;;;;;;;;;;;;;;;;;;5111593;28;871;-68
2023/01/07 04:38:46;;;;;;;;;;;;;;;;;;5111274;28;927;-67
2023/01/07 04:41:11;;;;;;;;;;;;;;;;;;5093464;28;1120;-67
2023/01/07 04:43:37;;;;;;;;;;;;;;;;;;5111919;28;966;-67
2023/01/07 04:46:02;;;;;;;;;;;;;;;;;;5076441;28;1271;-67
2023/01/07 04:48:28;;;;;;;;;;;;;;;;;;5111531;28;876;-67
2023/01/07 04:50:53;;;;;;;;;;;;;;;;;;5093167;28;1097;-67
2023/01/07 04:53:18;;;;;;;;;;;;;;;;;;5111500;28;1914;-67
2023/01/07 04:55:44;;;;;;;;;;;;;;;;;;5093056;28;1297;-67
2023/01/07 04:58:09;;;;;;;;;;;;;;;;;;5093037;28;1187;-67
2023/01/07 05:00:34;;;;;;;;;;;;;;;;;;5111816;28;888;-67
2023/01/07 05:03:00;;;;;;;;;;;;;;;;;;5110986;28;912;-67
2023/01/07 05:05:25;;;;;;;;;;;;;;;;;;5094886;28;758;-67
2023/01/07 05:07:50;;;;;;;;;;;;;;;;;;5095807;28;1173;-68
2023/01/07 05:10:16;;;;;;;;;;;;;;;;;;5095964;28;1226;-67
2023/01/07 05:12:41;;;;;;;;;;;;;;;;;;5096336;28;1893;-66
2023/01/07 05:15:07;;;;;;;;;;;;;;;;;;5096130;28;1054;-67
2023/01/07 05:17:32;;;;;;;;;;;;;;;;;;5096001;28;1183;-66
2023/01/07 05:19:57;;;;;;;;;;;;;;;;;;5095877;28;907;-66
2023/01/07 05:22:23;;;;;;;;;;;;;;;;;;5079218;28;1274;-67
2023/01/07 05:24:48;;;;;;;;;;;;;;;;;;5095453;28;1044;-67
2023/01/07 05:27:13;;;;;;;;;;;;;;;;;;5095461;28;1204;-66
2023/01/07 05:29:39;;;;;;;;;;;;;;;;;;5095888;28;1218;-67
2023/01/07 05:32:04;;;;;;;;;;;;;;;;;;5095337;28;1263;-68
2023/01/07 05:34:29;;;;;;;;;;;;;;;;;;5095296;28;1898;-67
2023/01/07 05:36:55;;;;;;;;;;;;;;;;;;5113632;28;1062;-67
2023/01/07 05:39:20;;;;;;;;;;;;;;;;;;5114009;28;892;-67
2023/01/07 05:41:45;;;;;;;;;;;;;;;;;;5113747;28;896;-67
2023/01/07 05:44:11;;;;;;;;;;;;;;;;;;5078460;28;1258;-66
2023/01/07 05:46:36;;;;;;;;;;;;;;;;;;5095724;28;1434;-66
2023/01/07 05:49:02;;;;;;;;;;;;;;;;;;5113513;28;884;-66
2023/01/07 05:51:27;;;;;;;;;;;;;;;;;;5095533;28;1266;-67
2023/01/07 05:53:52;;;;;;;;;;;;;;;;;;5113086;28;1969;-67
2023/01/07 05:56:18;;;;;;;;;;;;;;;;;;5095802;28;900;-68
2023/01/07 05:58:43;;;;;;;;;;;;;;;;;;5113839;28;935;-67
2023/01/07 06:01:09;;;;;;;;;;;;;;;;;;5095897;28;959;-67
2023/01/07 06:03:34;;;;;;;;;;;;;;;;;;5096085;28;1187;-67
2023/01/07 06:06:05;;;;;;;;;;;;;;;;;;5113072;28;821;-67
2023/01/07 06:08:31;;;;;;;;;;;;;;;;;;5095518;28;1246;-67
2023/01/07 06:10:57;;;;;;;;;;;;;;;;;;5094425;28;1190;-67
2023/01/07 06:13:22;;;;;;;;;;;;;;;;;;5078364;28;1956;-67
2023/01/07 06:15:47;;;;;;;;;;;;;;;;;;5078421;28;1232;-67
2023/01/07 06:18:13;;;;;;;;;;;;;;;;;;5077932;28;1219;-67
2023/01/07 06:20:38;;;;;;;;;;;;;;;;;;5113953;28;977;-67
2023/01/07 06:23:04;;;;;;;;;;;;;;;;;;5113271;28;852;-67
2023/01/07 06:25:29;;;;;;;;;;;;;;;;;;5095336;28;1204;-67
2023/01/07 06:27:57;;;;;;;;;;;;;;;;;;5077873;28;1200;-67
2023/01/07 06:30:23;;;;;;;;;;;;;;;;;;5113707;28;812;-67
2023/01/07 06:32:48;;;;;;;;;;;;;;;;;;5094868;28;1952;-67
2023/01/07 06:35:13;;;;;;;;;;;;;;;;;;5093973;28;1325;-67
2023/01/07 06:37:38;;;;;;;;;;;;;;;;;;5113369;28;920;-67
2023/01/07 06:40:04;;;;;;;;;;;;;;;;;;5093883;28;1373;-67
2023/01/07 06:42:29;;;;;;;;;;;;;;;;;;5112667;28;998;-67
2023/01/07 06:44:55;;;;;;;;;;;;;;;;;;5093990;28;1330;-67
2023/01/07 06:47:20;;;;;;;;;;;;;;;;;;5112439;28;883;-67
2023/01/07 06:49:45;;;;;;;;;;;;;;;;;;5112593;28;848;-68
2023/01/07 06:52:11;;;;;;;;;;;;;;;;;;5111998;28;912;-67
2023/01/07 06:54:37;;;;;;;;;;;;;;;;;;5094408;28;837;-67
2023/01/07 06:57:02;;;;;;;;;;;;;;;;;;5111874;28;995;-67
2023/01/07 06:59:27;;;;;;;;;;;;;;;;;;5094340;28;1299;-67
2023/01/07 07:01:53;;;;;;;;;;;;;;;;;;5093760;28;1214;-67
2023/01/07 07:04:18;;;;;;;;;;;;;;;;;;5076684;28;1161;-67
2023/01/07 07:06:43;;;;;;;;;;;;;;;;;;5112414;28;1049;-67
2023/01/07 07:09:09;;;;;;;;;;;;;;;;;;5112735;28;777;-67
2023/01/07 07:11:34;;;;;;;;;;;;;;;;;;5110892;28;1269;-67
2023/01/07 07:14:00;;;;;;;;;;;;;;;;;;5130573;27;1959;-67
2023/01/07 07:16:25;;;;;;;;;;;;;;;;;;5076458;28;1337;-67
2023/01/07 07:18:51;;;;;;;;;;;;;;;;;;5111969;28;816;-67
2023/01/07 07:21:16;;;;;;;;;;;;;;;;;;5087472;28;1227;-67
2023/01/07 07:23:41;;;;;;;;;;;;;;;;;;5093525;28;1206;-67
2023/01/07 07:26:07;;;;;;;;;;;;;;;;;;5093538;28;884;-67
2023/01/07 07:28:32;;;;;;;;;;;;;;;;;;5093717;28;1277;-67
2023/01/07 07:30:57;;;;;;;;;;;;;;;;;;5093346;28;880;-68
2023/01/07 07:33:23;;;;;;;;;;;;;;;;;;5110355;28;1893;-67
2023/01/07 07:35:48;;;;;;;;;;;;;;;;;;5111898;28;1455;-67
2023/01/07 07:38:17;;;;;;;;;;;;;;;;;;5093702;28;1649;-72
2023/01/07 07:40:43;;;;;;;;;;;;;;;;;;5111513;28;1237;-72
2023/01/07 07:43:08;;;;;;;;;;;;;;;;;;5093593;28;852;-72
2023/01/07 07:45:33;;;;;;;;;;;;;;;;;;5093605;28;1338;-67
2023/01/07 07:47:59;;;;;;;;;;;;;;;;;;5076330;28;1267;-67
2023/01/07 07:50:24;;;;;;;;;;;;;;;;;;5093489;28;1210;-67
2023/01/07 07:52:49;;;;;;;;;;;;;;;;;;5111511;28;1957;-67
2023/01/07 07:55:15;;;;;;;;;;;;;;;;;;5111027;28;900;-67
2023/01/07 07:57:40;;;;;;;;;;;;;;;;;;5111615;28;860;-67
2023/01/07 08:00:06;;;;;;;;;;;;;;;;;;5092882;28;908;-67
2023/01/07 08:02:31;;;;;;;;;;;;;;;;;;5111908;28;903;-67
2023/01/07 08:04:56;;;;;;;;;;;;;;;;;;5109791;28;1214;-67
2023/01/07 08:07:22;;;;;;;;;;;;;;;;;;5110927;28;974;-66
2023/01/07 08:09:47;;;;;;;;;;;;;;;;;;5111535;28;848;-67
2023/01/07 08:12:12;;;;;;;;;;;;;;;;;;5110752;28;955;-67
2023/01/07 08:14:37;;;;;;;;;;;;;;;;;;5111268;28;1964;-67
2023/01/07 08:17:03;;;;;;;;;;;;;;;;;;5110958;28;903;-67
2023/01/07 08:19:28;;;;;;;;;;;;;;;;;;5092885;28;824;-67
2023/01/07 08:21:53;;;;;;;;;;;;;;;;;;5092682;28;912;-66
2023/01/07 08:24:19;;;;;;;;;;;;;;;;;;5075850;28;1279;-67
2023/01/07 08:26:44;;;;;;;;;;;;;;;;;;5110966;28;899;-66
2023/01/07 08:29:09;;;;;;;;;;;;;;;;;;5092882;28;1274;-67
2023/01/07 08:31:34;;;;;;;;;;;;;;;;;;5076034;28;1270;-66
2023/01/07 08:34:00;;;;;;;;;;;;;;;;;;5092506;28;1926;-66
2023/01/07 08:36:25;;;;;;;;;;;;;;;;;;5110950;28;769;-66
2023/01/07 08:38:51;;;;;;;;;;;;;;;;;;5111024;28;832;-66
2023/01/07 08:41:17;;;;;;;;;;;;;;;;;;5113033;28;1246;-67
2023/01/07 08:43:43;;;;;;;;;;;;;;;;;;5115265;28;884;-67
2023/01/07 08:46:09;;;;;;;;;;;;;;;;;;5096334;28;1222;-67
2023/01/07 08:48:34;;;;;;;;;;;;;;;;;;5114120;28;1344;-67
2023/01/07 08:50:59;;;;;;;;;;;;;;;;;;5113658;28;1257;-67
2023/01/07 08:53:25;;;;;;;;;;;;;;;;;;5095993;28;1898;-67
2023/01/07 08:55:50;;;;;;;;;;;;;;;;;;5115064;28;816;-67
2023/01/07 08:58:15;;;;;;;;;;;;;;;;;;5115205;28;849;-66
2023/01/07 09:00:41;;;;;;;;;;;;;;;;;;5115598;28;900;-66
2023/01/07 09:03:06;;;;;;;;;;;;;;;;;;5113906;28;1194;-66
2023/01/07 09:05:31;;;;;;;;;;;;;;;;;;5115354;28;906;-66
2023/01/07 09:07:57;;;;;;;;;;;;;;;;;;5096680;28;947;-66
2023/01/07 09:10:24;;;;;;;;;;;;;;;;;;5096986;28;884;-66
2023/01/07 09:12:50;;;;;;;;;;;;;;;;;;5113442;28;1955;-67
2023/01/07 09:15:15;;;;;;;;;;;;;;;;;;5114685;28;991;-67
2023/01/07 09:17:40;;;;;;;;;;;;;;;;;;5096141;28;880;-67
2023/01/07 09:20:06;;;;;;;;;;;;;;;;;;5078897;28;1280;-67
2023/01/07 09:22:32;;;;;;;;;;;;;;;;;;5095824;28;959;-67
2023/01/07 09:24:57;;;;;;;;;;;;;;;;;;5114096;28;896;-67
2023/01/07 09:27:25;;;;;;;;;;;;;;;;;;5095938;28;883;-72
2023/01/07 09:29:50;;;;;;;;;;;;;;;;;;5112496;28;1417;-72
2023/01/07 09:32:16;;;;;;;;;;;;;;;;;;5114053;28;872;-72
2023/01/07 09:34:41;;;;;;;;;;;;;;;;;;5095490;28;1977;-72
2023/01/07 09:37:07;;;;;;;;;;;;;;;;;;5113687;28;773;-72
2023/01/07 09:39:32;;;;;;;;;;;;;;;;;;5095356;28;1222;-72
2023/01/07 09:42:03;;;;;;;;;;;;;;;;;;5113457;28;852;-71
2023/01/07 09:44:38;;;;;;;;;;;;;;;;;;5113352;28;964;-67
2023/01/07 09:47:04;;;;;;;;;;;;;;;;;;5114046;28;770;-67
2023/01/07 09:49:31;;;;;;;;;;;;;;;;;;5113487;28;896;-67
2023/01/07 09:52:04;;;;;;;;;;;;;;;;;;5093389;28;1384;-67
2023/01/07 09:54:32;;;;;;;;;;;;;;;;;;5112358;28;1901;-67
2023/01/07 09:56:58;;;;;;;;;;;;;;;;;;5094956;28;1088;-67
2023/01/07 09:59:23;;;;;;;;;;;;;;;;;;5104592;28;1282;-67
2023/01/07 10:01:51;;;;;;;;;;;;;;;;;;5095160;28;1239;-66
2023/01/07 10:04:19;;;;;;;;;;;;;;;;;;5113162;28;946;-66
2023/01/07 10:06:48;;;;;;;;;;;;;;;;;;5095519;28;1180;-72
2023/01/07 10:09:37;;;;;;;;;;;;;;;;;;5094204;28;1199;-71
2023/01/07 10:12:06;;;;;;;;;;;;;;;;;;5094866;28;1438;-71
2023/01/07 10:14:31;;;;;;;;;;;;;;;;;;5094910;28;1948;-71
2023/01/07 10:16:59;;;;;;;;;;;;;;;;;;5113025;28;935;-71
2023/01/07 10:19:30;;;;;;;;;;;;;;;;;;5094944;28;1262;-72
2023/01/07 10:21:58;;;;;;;;;;;;;;;;;;5113288;28;912;-72
2023/01/07 10:24:30;;;;;;;;;;;;;;;;;;5094717;28;1184;-72
2023/01/07 10:27:16;;;;;;;;;;;;;;;;;;5094715;28;1214;-72
2023/01/07 10:29:43;;;;;;;;;;;;;;;;;;5094732;28;1215;-71
2023/01/07 10:32:14;;;;;;;;;;;;;;;;;;5113641;28;987;-72
2023/01/07 10:34:44;;;;;;;;;;;;;;;;;;5094654;28;1901;-72
2023/01/07 10:37:28;;;;;;;;;;;;;;;;;;5113346;28;884;-72
2023/01/07 10:40:05;;;;;;;;;;;;;;;;;;5095473;28;1290;-71
2023/01/07 10:42:57;;;;;;;;;;;;;;;;;;5113705;28;841;-72
2023/01/07 10:45:40;;;;;;;;;;;;;;;;;;5080981;28;1234;-69
2023/01/07 10:48:24;;;;;;;;;;;;;;;;;;5112988;28;927;-69
2023/01/07 10:50:59;;;;;;;;;;;;;;;;;;5112869;28;915;-68
2023/01/07 10:53:28;;;;;;;;;;;;;;;;;;5093979;28;1918;-68
2023/01/07 10:55:55;;;;;;;;;;;;;;;;;;5112476;28;979;-68
2023/01/07 10:58:21;;;;;;;;;;;;;;;;;;5093153;28;1270;-69
2023/01/07 11:00:47;;;;;;;;;;;;;;;;;;5111829;28;947;-69
2023/01/07 11:03:28;;;;;;;;;;;;;;;;;;5111461;28;868;-70
2023/01/07 11:05:55;;;;;;;;;;;;;;;;;;5111770;28;1269;-69
2023/01/07 11:08:23;;;;;;;;;;;;;;;;;;5111461;28;785;-70
2023/01/07 11:10:49;;;;;;;;;;;;;;;;;;5111727;28;988;-69
2023/01/07 11:13:17;;;;;;;;;;;;;;;;;;5093580;28;1897;-70
2023/01/07 11:15:48;;;;;;;;;;;;;;;;;;5093208;28;1199;-69
2023/01/07 11:18:21;;;;;;;;;;;;;;;;;;5111602;28;1070;-69
2023/01/07 11:20:49;;;;;;;;;;;;;;;;;;5094445;28;1254;-70
2023/01/07 11:23:17;;;;;;;;;;;;;;;;;;5112265;28;829;-70
2023/01/07 11:25:42;;;;;;;;;;;;;;;;;;5093910;28;1468;-69
2023/01/07 11:28:16;;;;;;;;;;;;;;;;;;5077766;28;1276;-69
2023/01/07 11:30:42;;;;;;;;;;;;;;;;;;5112440;28;1006;-70
2023/01/07 11:33:16;;;;;;;;;;;;;;;;;;5094019;28;1956;-69
2023/01/07 11:35:50;;;;;;;;;;;;;;;;;;5113107;28;1396;-69
2023/01/07 11:38:29;;;;;;;;;;;;;;;;;;5112923;28;987;-69
2023/01/07 11:40:57;;;;;;;;;;;;;;;;;;5113293;28;875;-69
2023/01/07 11:43:24;;;;;;;;;;;;;;;;;;5113055;28;813;-69
2023/01/07 11:45:51;;;;;;;;;;;;;;;;;;5094630;28;1080;-70
2023/01/07 11:48:16;;;;;;;;;;;;;;;;;;5112475;28;1143;-69
2023/01/07 11:50:43;;;;;;;;;;;;;;;;;;5093949;28;1274;-69
2023/01/07 11:53:14;;;;;;;;;;;;;;;;;;5094977;28;1906;-69
2023/01/07 11:56:00;;;;;;;;;;;;;;;;;;5113049;28;902;-69
2023/01/07 11:58:45;;;;;;;;;;;;;;;;;;5112854;28;1044;-68
2023/01/07 12:01:13;;;;;;;;;;;;;;;;;;5112228;28;1125;-68
2023/01/07 12:03:41;;;;;;;;;;;;;;;;;;5113526;28;829;-68
2023/01/07 12:06:09;;;;;;;;;;;;;;;;;;5113323;28;840;-68
2023/01/07 12:08:35;;;;;;;;;;;;;;;;;;5112610;28;927;-68
2023/01/07 12:11:06;;;;;;;;;;;;;;;;;;5112950;28;998;-68
2023/01/07 12:13:33;;;;;;;;;;;;;;;;;;5112760;28;2122;-68
2023/01/07 12:16:03;;;;;;;;;;;;;;;;;;5097753;28;876;-68
2023/01/07 12:18:50;;;;;;;;;;;;;;;;;;5099288;28;1337;-68
2023/01/07 12:21:30;;;;;;;;;;;;;;;;;;5116631;28;841;-68
2023/01/07 12:24:13;;;;;;;;;;;;;;;;;;5117565;28;972;-69
2023/01/07 12:26:53;;;;;;;;;;;;;;;;;;5116224;28;844;-69
2023/01/07 12:29:43;;;;;;;;;;;;;;;;;;5115215;28;836;-69
2023/01/07 12:32:14;;;;;;;;;;;;;;;;;;5104377;28;1136;-69
2023/01/07 12:34:48;;;;;;;;;;;;;;;;;;5114752;28;1902;-70
2023/01/07 12:37:16;;;;;;;;;;;;;;;;;;5096534;28;1381;-69
2023/01/07 12:39:43;;;;;;;;;;;;;;;;;;5114918;28;856;-70
2023/01/07 12:42:16;;;;;;;;;;;;;;;;;;5096625;28;1200;-69
2023/01/07 12:44:54;;;;;;;;;;;;;;;;;;5096428;28;1105;-69
2023/01/07 12:47:23;;;;;;;;;;;;;;;;;;5114972;28;904;-70
2023/01/07 12:49:51;;;;;;;;;;;;;;;;;;5114449;28;907;-70
2023/01/07 12:52:19;;;;;;;;;;;;;;;;;;5114583;28;844;-69
2023/01/07 12:54:57;;;;;;;;;;;;;;;;;;5096043;28;1934;-69
2023/01/07 12:57:26;;;;;;;;;;;;;;;;;;5096448;28;1115;-68
2023/01/07 12:59:58;;;;;;;;;;;;;;;;;;5114824;28;924;-68
2023/01/07 13:02:37;;;;;;;;;;;;;;;;;;5114535;28;758;-68
2023/01/07 13:05:02;;;;;;;;;;;;;;;;;;5114970;28;848;-68
2023/01/07 13:07:36;;;;;;;;;;;;;;;;;;5114326;28;782;-68
2023/01/07 13:10:04;;;;;;;;;;;;;;;;;;5096632;28;1340;-68
2023/01/07 13:12:41;;;;;;;;;;;;;;;;;;5114320;28;1898;-68
2023/01/07 13:15:25;;;;;;;;;;;;;;;;;;5114252;28;915;-68
2023/01/07 13:17:55;;;;;;;;;;;;;;;;;;5114232;28;841;-68
2023/01/07 13:20:31;;;;;;;;;;;;;;;;;;5095959;28;1521;-68
2023/01/07 13:22:58;;;;;;;;;;;;;;;;;;5096058;28;1163;-68
2023/01/07 13:25:27;;;;;;;;;;;;;;;;;;5095345;28;1210;-68
2023/01/07 13:28:11;;;;;;;;;;;;;;;;;;5114253;28;888;-68
2023/01/07 13:30:55;;;;;;;;;;;;;;;;;;5096484;28;1095;-69
2023/01/07 13:33:33;;;;;;;;;;;;;;;;;;5114808;28;1953;-68
2023/01/07 13:36:02;;;;;;;;;;;;;;;;;;5096202;28;1311;-68
2023/01/07 13:38:46;;;;;;;;;;;;;;;;;;5096679;28;1140;-68
2023/01/07 13:41:11;;;;;;;;;;;;;;;;;;5114474;28;1037;-68
2023/01/07 13:43:55;;;;;;;;;;;;;;;;;;5096750;28;1313;-67
2023/01/07 13:46:24;;;;;;;;;;;;;;;;;;5114310;28;970;-67
2023/01/07 13:48:51;;;;;;;;;;;;;;;;;;5114352;28;913;-68
2023/01/07 13:51:25;;;;;;;;;;;;;;;;;;5095839;28;1238;-67
2023/01/07 13:53:50;;;;;;;;;;;;;;;;;;5113869;28;1909;-67
2023/01/07 13:56:15;;;;;;;;;;;;;;;;;;5113800;28;1019;-67
2023/01/07 13:58:48;;;;;;;;;;;;;;;;;;5114260;28;876;-67
2023/01/07 14:01:14;;;;;;;;;;;;;;;;;;5114465;28;845;-68
2023/01/07 14:03:40;;;;;;;;;;;;;;;;;;5116152;28;879;-67
2023/01/07 14:06:22;;;;;;;;;;;;;;;;;;5096510;28;1211;-67
2023/01/07 14:08:49;;;;;;;;;;;;;;;;;;5095496;28;1179;-67
2023/01/07 14:11:15;;;;;;;;;;;;;;;;;;5113847;28;836;-67
2023/01/07 14:13:43;;;;;;;;;;;;;;;;;;5114089;28;1961;-67
2023/01/07 14:16:08;;;;;;;;;;;;;;;;;;5095507;28;1171;-68
2023/01/07 14:18:52;;;;;;;;;;;;;;;;;;5113879;28;998;-68
2023/01/07 14:21:26;;;;;;;;;;;;;;;;;;5113780;28;832;-68
2023/01/07 14:23:51;;;;;;;;;;;;;;;;;;5113235;28;1156;-68
2023/01/07 14:26:25;;;;;;;;;;;;;;;;;;5113232;28;942;-68
2023/01/07 14:28:54;;;;;;;;;;;;;;;;;;5093665;28;1162;-68
2023/01/07 14:31:23;;;;;;;;;;;;;;;;;;5112104;28;1010;-68
2023/01/07 14:33:51;;;;;;;;;;;;;;;;;;5112493;28;1951;-68
2023/01/07 14:36:16;;;;;;;;;;;;;;;;;;5111757;28;1084;-68
2023/01/07 14:38:41;;;;;;;;;;;;;;;;;;5111196;28;995;-67
2023/01/07 14:41:08;;;;;;;;;;;;;;;;;;5111988;28;797;-68
2023/01/07 14:43:40;;;;;;;;;;;;;;;;;;5094245;28;1234;-68
2023/01/07 14:46:21;;;;;;;;;;;;;;;;;;5112695;28;888;-68
2023/01/07 14:49:01;;;;;;;;;;;;;;;;;;5094679;28;1430;-67
2023/01/07 14:51:27;;;;;;;;;;;;;;;;;;5113277;28;864;-69
2023/01/07 14:54:07;;;;;;;;;;;;;;;;;;5113475;28;1914;-69
2023/01/07 14:56:35;;;;;;;;;;;;;;;;;;5114137;28;1069;-69
2023/01/07 14:59:20;;;;;;;;;;;;;;;;;;5113862;28;885;-69
2023/01/07 15:02:04;;;;;;;;;;;;;;;;;;5094589;28;1216;-69
2023/01/07 15:04:48;;;;;;;;;;;;;;;;;;5114315;28;848;-69
2023/01/07 15:07:18;;;;;;;;;;;;;;;;;;5113633;28;938;-69
2023/01/07 15:18:24;;;;;;;;;;;;;;;;;;5049094;28;683;-69
2023/01/07 15:20:49;;;;;;;;;;;;;;;;;;5086872;28;943;-69
2023/01/07 15:23:41;;;;;;;;;;;;;;;;;;5093851;28;1328;-69
2023/01/07 15:26:15;;;;;;;;;;;;;;;;;;5062689;28;1347;-69
2023/01/07 15:28:50;;;;;;;;;;;;;;;;;;5112626;28;899;-69
2023/01/07 15:31:20;;;;;;;;;;;;;;;;;;5094556;28;1219;-69
2023/01/07 15:33:52;;;;;;;;;;;;;;;;;;5111802;28;1955;-69
2023/01/07 15:36:17;;;;;;;;;;;;;;;;;;5111975;28;1382;-69
2023/01/07 15:38:45;;;;;;;;;;;;;;;;;;5112166;28;908;-69
2023/01/07 15:41:22;;;;;;;;;;;;;;;;;;5112118;28;860;-69
2023/01/07 15:43:48;;;;;;;;;;;;;;;;;;5093643;28;1179;-69
2023/01/07 15:46:13;;;;;;;;;;;;;;;;;;5111849;28;1053;-68
2023/01/07 15:48:39;;;;;;;;;;;;;;;;;;5094186;28;1219;-69
2023/01/07 15:51:16;;;;;;;;;;;;;;;;;;5111327;28;971;-69
2023/01/07 15:53:43;;;;;;;;;;;;;;;;;;5112002;28;1905;-69
2023/01/07 15:56:11;;;;;;;;;;;;;;;;;;5079919;28;1335;-68
2023/01/07 15:58:44;;;;;;;;;;;;;;;;;;5099818;28;1377;-68
2023/01/07 16:01:20;;;;;;;;;;;;;;;;;;5132347;27;842;-68
2023/01/07 16:03:46;;;;;;;;;;;;;;;;;;5132156;27;990;-69
2023/01/07 16:06:45;;;;;;;;;;;;;;;;;;5113629;28;1269;-69
2023/01/07 16:09:18;;;;;;;;;;;;;;;;;;5086924;28;1400;-69
2023/01/07 16:11:43;;;;;;;;;;;;;;;;;;5132231;28;926;-69
2023/01/07 16:14:19;;;;;;;;;;;;;;;;;;5113571;28;1949;-68
2023/01/07 16:16:45;;;;;;;;;;;;;;;;;;5130709;28;1158;-69
2023/01/07 16:19:28;;;;;;;;;;;;;;;;;;5082045;28;1254;-69
2023/01/07 16:21:56;;;;;;;;;;;;;;;;;;5130116;28;1329;-69
2023/01/07 16:24:21;;;;;;;;;;;;;;;;;;5132406;28;881;-69
2023/01/07 16:26:56;;;;;;;;;;;;;;;;;;5132328;28;820;-68
2023/01/07 16:29:24;;;;;;;;;;;;;;;;;;5113781;28;1198;-69
2023/01/07 16:31:49;;;;;;;;;;;;;;;;;;5114060;28;1229;-69
2023/01/07 16:34:24;;;;;;;;;;;;;;;;;;5131764;28;1921;-69
2023/01/07 16:36:51;;;;;;;;;;;;;;;;;;5113076;28;1293;-69
2023/01/07 16:39:24;;;;;;;;;;;;;;;;;;5131786;28;864;-69
2023/01/07 16:42:18;;;;;;;;;;;;;;;;;;5113248;28;1206;-69
2023/01/07 16:44:38;;;;;;;;;;;;;;;;;;5131284;28;1120;-68
2023/01/07 16:47:05;;;;;;;;;;;;;;;;;;5113119;28;1206;-69
2023/01/07 16:49:30;;;;;;;;;;;;;;;;;;5113229;28;1210;-69
2023/01/07 16:52:02;;;;;;;;;;;;;;;;;;5131598;28;847;-68
2023/01/07 16:54:28;;;;;;;;;;;;;;;;;;5131594;28;1894;-68
2023/01/07 16:56:55;;;;;;;;;;;;;;;;;;5131788;28;853;-68
2023/01/07 16:59:23;;;;;;;;;;;;;;;;;;5131607;28;919;-69
2023/01/07 17:01:48;;;;;;;;;;;;;;;;;;5134031;27;999;-68
2023/01/07 17:04:22;;;;;;;;;;;;;;;;;;5116962;27;993;-65
2023/01/07 17:06:47;;;;;;;;;;;;;;;;;;5117622;27;1493;-65
2023/01/07 17:09:23;;;;;;;;;;;;;;;;;;5117235;27;1359;-65
2023/01/07 17:11:50;;;;;;;;;;;;;;;;;;5135921;27;832;-65
2023/01/07 17:14:37;;;;;;;;;;;;;;;;;;5117164;27;1901;-65
2023/01/07 17:17:02;;;;;;;;;;;;;;;;;;5116941;27;1169;-65
2023/01/07 17:19:37;;;;;;;;;;;;;;;;;;5116900;27;1380;-65
2023/01/07 17:22:03;;;;;;;;;;;;;;;;;;5135478;27;911;-65
2023/01/07 17:24:28;;;;;;;;;;;;;;;;;;5135987;27;1020;-65
2023/01/07 17:26:55;;;;;;;;;;;;;;;;;;5135492;27;831;-65
2023/01/07 17:29:24;;;;;;;;;;;;;;;;;;5135264;27;914;-65
2023/01/07 17:31:49;;;;;;;;;;;;;;;;;;5116547;27;1038;-65
2023/01/07 17:34:15;;;;;;;;;;;;;;;;;;5134242;27;1905;-66
2023/01/07 17:36:40;;;;;;;;;;;;;;;;;;5117252;27;1206;-65